createdAt,value
2022-08-07T00:00:26.366Z,101003.70
2022-08-07T00:02:54.042Z,101005.04
2022-08-07T00:05:23.680Z,101006.38
2022-08-07T00:07:59.632Z,101005.45
2022-08-07T00:10:29.719Z,101002.16
2022-08-07T00:13:17.593Z,101005.83
2022-08-07T00:15:52.602Z,101007.05
2022-08-07T00:18:24.106Z,101006.48
2022-08-07T00:20:55.033Z,101009.33
2022-08-07T00:23:24.679Z,101010.49
2022-08-07T00:26:00.398Z,101007.88
2022-08-07T00:28:33.461Z,101014.98
2022-08-07T00:31:12.516Z,101012.74
2022-08-07T00:33:41.361Z,101005.74
2022-08-07T00:36:10.041Z,101005.88
2022-08-07T00:38:39.015Z,101015.81
2022-08-07T00:41:10.077Z,101011.69
2022-08-07T00:43:59.260Z,101003.96
2022-08-07T00:46:31.058Z,100998.70
2022-08-07T00:49:03.453Z,101000.42
2022-08-07T00:51:56.975Z,101003.36
2022-08-07T00:54:19.677Z,101007.27
2022-08-07T00:56:49.589Z,101004.08
2022-08-07T00:59:20.163Z,101004.42
2022-08-07T01:01:59.797Z,101004.95
2022-08-07T01:04:27.315Z,101000.86
2022-08-07T01:06:57.864Z,101000.63
2022-08-07T01:10:05.348Z,101002.42
2022-08-07T01:12:29.663Z,101006.11
2022-08-07T01:15:01.534Z,101008.83
2022-08-07T01:17:32.428Z,101009.13
2022-08-07T01:20:17.125Z,101008.04
2022-08-07T01:23:00.585Z,101010.66
2022-08-07T01:25:53.913Z,101010.39
2022-08-07T01:28:23.291Z,101008.59
2022-08-07T01:30:54.525Z,101010.38
2022-08-07T01:33:25.356Z,101016.75
2022-08-07T01:36:13.401Z,101015.33
2022-08-07T01:38:45.263Z,101014.20
2022-08-07T01:41:26.026Z,101016.12
2022-08-07T01:43:56.047Z,101018.29
2022-08-07T01:46:24.324Z,101020.90
2022-08-07T01:48:53.024Z,101022.39
2022-08-07T01:52:02.176Z,101022.99
2022-08-07T01:54:32.687Z,101021.16
2022-08-07T01:57:27.489Z,101021.89
2022-08-07T02:00:01.943Z,101021.34
2022-08-07T02:03:15.952Z,101023.84
2022-08-07T02:05:47.496Z,101022.13
2022-08-07T02:08:19.500Z,101024.66
2022-08-07T02:10:55.210Z,101025.76
2022-08-07T02:13:56.797Z,101029.78
2022-08-07T02:16:19.997Z,101030.30
2022-08-07T02:18:57.002Z,101028.30
2022-08-07T02:21:25.684Z,101023.99
2022-08-07T02:23:53.447Z,101029.55
2022-08-07T02:26:32.395Z,101025.41
2022-08-07T02:29:04.279Z,101023.27
2022-08-07T02:31:32.620Z,101026.59
2022-08-07T02:34:03.524Z,101025.10
2022-08-07T02:36:37.184Z,101025.59
2022-08-07T02:39:17.372Z,101023.44
2022-08-07T02:41:58.331Z,101022.37
2022-08-07T02:44:34.606Z,101022.79
2022-08-07T02:47:06.752Z,101024.48
2022-08-07T02:49:57.693Z,101023.61
2022-08-07T02:53:06.135Z,101023.02
2022-08-07T02:56:02.202Z,101025.65
2022-08-07T02:58:27.273Z,101028.24
2022-08-07T03:00:56.814Z,101028.30
2022-08-07T03:03:26.579Z,101029.92
2022-08-07T03:06:16.381Z,101025.89
2022-08-07T03:08:45.231Z,101026.48
2022-08-07T03:11:13.563Z,101027.88
2022-08-07T03:13:49.436Z,101027.82
2022-08-07T03:16:22.879Z,101027.06
2022-08-07T03:18:56.993Z,101027.98
2022-08-07T03:21:24.805Z,101027.02
2022-08-07T03:24:20.083Z,101026.10
2022-08-07T03:26:58.170Z,101025.82
2022-08-07T03:29:36.651Z,101031.12
2022-08-07T03:32:12.804Z,101032.62
2022-08-07T03:34:47.628Z,101028.85
2022-08-07T03:37:37.397Z,101031.47
2022-08-07T03:40:15.600Z,101036.19
2022-08-07T03:42:45.081Z,101034.70
2022-08-07T03:45:29.764Z,101040.17
2022-08-07T03:48:02.625Z,101038.66
2022-08-07T03:50:31.662Z,101041.20
2022-08-07T03:53:03.577Z,101041.20
2022-08-07T03:55:53.150Z,101043.90
2022-08-07T03:59:05.195Z,101046.82
2022-08-07T04:01:11.812Z,101045.54
2022-08-07T04:03:53.431Z,101048.98
2022-08-07T04:06:37.633Z,101051.56
2022-08-07T04:09:15.246Z,101048.89
2022-08-07T04:12:21.565Z,101052.27
2022-08-07T04:14:38.969Z,101053.09
2022-08-07T04:17:19.906Z,101048.89
2022-08-07T04:19:54.034Z,101047.59
2022-08-07T04:22:29.091Z,101053.02
2022-08-07T04:25:01.452Z,101050.65
2022-08-07T04:27:35.497Z,101044.92
2022-08-07T04:30:21.547Z,101041.16
2022-08-07T04:33:02.572Z,101038.81
2022-08-07T04:35:36.863Z,101038.61
2022-08-07T04:38:08.794Z,101042.98
2022-08-07T04:40:51.330Z,101044.53
2022-08-07T04:44:09.791Z,101045.86
2022-08-07T04:46:35.891Z,101043.17
2022-08-07T04:49:28.615Z,101049.50
2022-08-07T04:52:51.961Z,101054.16
2022-08-07T04:58:10.524Z,101058.15
2022-08-07T04:59:18.465Z,101054.83
2022-08-07T05:01:58.631Z,101058.20
2022-08-07T05:04:43.894Z,101061.33
2022-08-07T05:07:37.081Z,101061.61
2022-08-07T05:10:27.464Z,101065.82
2022-08-07T05:14:44.229Z,101069.74
2022-08-07T05:15:53.575Z,101069.86
2022-08-07T05:18:27.422Z,101069.84
2022-08-07T05:21:02.108Z,101072.91
2022-08-07T05:23:43.322Z,101071.80
2022-08-07T05:26:23.576Z,101069.77
2022-08-07T05:28:56.432Z,101072.42
2022-08-07T05:31:34.661Z,101071.17
2022-08-07T05:34:05.841Z,101069.09
2022-08-07T05:36:41.709Z,101067.25
2022-08-07T05:40:17.898Z,101072.96
2022-08-07T05:42:08.785Z,101074.58
2022-08-07T05:44:52.935Z,101075.73
2022-08-07T05:47:37.920Z,101078.11
2022-08-07T05:50:18.903Z,101085.89
2022-08-07T05:52:46.284Z,101085.09
2022-08-07T05:55:14.201Z,101088.31
2022-08-07T05:57:45.483Z,101083.47
2022-08-07T06:00:15.945Z,101084.13
2022-08-07T06:02:49.960Z,101089.08
2022-08-07T06:05:18.194Z,101089.02
2022-08-07T06:08:14.726Z,101089.77
2022-08-07T06:10:38.200Z,101084.84
2022-08-07T06:13:13.575Z,101086.98
2022-08-07T06:15:43.275Z,101087.46
2022-08-07T06:18:14.342Z,101090.48
2022-08-07T06:20:50.835Z,101088.36
2022-08-07T06:24:36.993Z,101091.95
2022-08-07T06:26:27.755Z,101092.26
2022-08-07T06:28:58.954Z,101089.98
2022-08-07T06:31:46.973Z,101088.92
2022-08-07T06:34:20.618Z,101090.71
2022-08-07T06:36:51.917Z,101093.60
2022-08-07T06:40:17.715Z,101091.55
2022-08-07T06:42:33.081Z,101094.70
2022-08-07T06:45:23.598Z,101100.27
2022-08-07T06:47:59.365Z,101101.73
2022-08-07T06:50:43.277Z,101096.55
2022-08-07T06:54:12.169Z,101097.73
2022-08-07T06:56:07.530Z,101094.88
2022-08-07T06:58:37.825Z,101098.41
2022-08-07T07:01:11.852Z,101101.31
2022-08-07T07:03:48.121Z,101098.66
2022-08-07T07:06:26.263Z,101095.06
2022-08-07T07:08:56.837Z,101093.52
2022-08-07T07:12:07.912Z,101093.03
2022-08-07T07:14:14.153Z,101089.64
2022-08-07T07:16:49.758Z,101085.21
2022-08-07T07:19:58.031Z,101087.72
2022-08-07T07:22:37.048Z,101083.95
2022-08-07T07:25:14.205Z,101081.61
2022-08-07T07:28:42.624Z,101081.06
2022-08-07T07:31:40.110Z,101083.71
2022-08-07T07:34:16.243Z,101083.17
2022-08-07T07:36:47.724Z,101084.21
2022-08-07T07:39:22.114Z,101082.20
2022-08-07T07:42:08.744Z,101079.77
2022-08-07T07:44:40.802Z,101080.73
2022-08-07T07:47:23.055Z,101079.17
2022-08-07T07:50:35.167Z,101076.71
2022-08-07T07:52:42.683Z,101075.16
2022-08-07T07:55:11.564Z,101076.66
2022-08-07T07:57:50.490Z,101076.52
2022-08-07T08:00:29.439Z,101074.09
2022-08-07T08:03:05.670Z,101073.22
2022-08-07T08:05:50.919Z,101074.25
2022-08-07T08:08:35.212Z,101071.02
2022-08-07T08:11:13.866Z,101066.46
2022-08-07T08:13:54.592Z,101071.63
2022-08-07T08:16:25.432Z,101068.84
2022-08-07T08:18:55.404Z,101071.65
2022-08-07T08:21:55.389Z,101067.44
2022-08-07T08:24:51.980Z,101068.15
2022-08-07T08:27:37.942Z,101070.85
2022-08-07T08:30:08.379Z,101069.27
2022-08-07T08:32:53.101Z,101070.05
2022-08-07T08:35:28.811Z,101069.09
2022-08-07T08:38:03.164Z,101070.77
2022-08-07T08:40:34.103Z,101064.59
2022-08-07T08:43:19.510Z,101066.23
2022-08-07T08:46:07.955Z,101061.14
2022-08-07T08:48:42.865Z,101068.91
2022-08-07T08:51:29.636Z,101067.85
2022-08-07T08:54:21.631Z,101064.48
2022-08-07T08:56:53.761Z,101067.02
2022-08-07T08:59:48.493Z,101075.41
2022-08-07T09:02:37.971Z,101073.52
2022-08-07T09:05:21.518Z,101073.05
2022-08-07T09:08:07.669Z,101069.67
2022-08-07T09:10:45.749Z,101068.95
2022-08-07T09:13:37.037Z,101070.51
2022-08-07T09:16:21.957Z,101060.86
2022-08-07T09:19:03.444Z,101055.31
2022-08-07T09:22:22.440Z,101056.18
2022-08-07T09:25:00.260Z,101055.80
2022-08-07T09:27:59.911Z,101052.02
2022-08-07T09:30:57.813Z,101055.29
2022-08-07T09:33:56.539Z,101052.52
2022-08-07T09:36:42.799Z,101052.45
2022-08-07T09:39:52.847Z,101047.78
2022-08-07T09:42:39.563Z,101046.75
2022-08-07T09:47:37.226Z,101045.19
2022-08-07T09:48:55.827Z,101039.27
2022-08-07T09:52:10.241Z,101038.66
2022-08-07T09:55:02.770Z,101036.98
2022-08-07T09:57:46.781Z,101037.79
2022-08-07T10:00:29.878Z,101035.66
2022-08-07T10:04:06.291Z,101026.52
2022-08-07T10:06:25.547Z,101027.44
2022-08-07T10:09:34.190Z,101022.40
2022-08-07T10:12:21.828Z,101025.21
2022-08-07T10:15:37.898Z,101019.07
2022-08-07T10:18:26.553Z,101016.25
2022-08-07T10:22:12.111Z,101012.84
2022-08-07T10:24:38.100Z,101004.86
2022-08-07T10:27:25.554Z,101004.17
2022-08-07T10:30:12.134Z,101005.54
2022-08-07T10:32:59.837Z,100995.85
2022-08-07T10:36:11.398Z,100993.09
2022-08-07T10:38:53.853Z,100987.90
2022-08-07T10:41:51.749Z,100985.05
2022-08-07T10:44:38.426Z,100984.17
2022-08-07T10:47:27.136Z,100988.29
2022-08-07T10:50:28.164Z,100979.69
2022-08-07T10:53:44.277Z,100980.64
2022-08-07T10:56:34.638Z,100975.66
2022-08-07T10:59:31.872Z,100971.67
2022-08-07T11:02:33.056Z,100973.44
2022-08-07T11:05:44.830Z,100963.61
2022-08-07T11:08:39.005Z,100960.73
2022-08-07T11:11:26.269Z,100964.52
2022-08-07T11:14:45.761Z,100975.35
2022-08-07T11:17:01.777Z,100960.30
2022-08-07T11:19:40.817Z,100954.33
2022-08-07T11:22:44.071Z,100949.86
2022-08-07T11:25:36.187Z,100952.17
2022-08-07T11:28:17.606Z,100948.67
2022-08-07T11:30:52.781Z,100951.27
2022-08-07T11:33:48.747Z,100949.13
2022-08-07T11:36:30.967Z,100949.02
2022-08-07T11:39:39.830Z,100941.70
2022-08-07T11:42:46.682Z,100929.37
2022-08-07T11:45:36.493Z,100936.36
2022-08-07T11:48:36.612Z,100931.77
2022-08-07T11:51:41.130Z,100934.30
2022-08-07T11:54:22.204Z,100931.88
2022-08-07T11:57:19.283Z,100925.03
2022-08-07T12:00:19.049Z,100928.40
2022-08-07T12:03:00.631Z,100926.86
2022-08-07T12:05:54.986Z,100927.83
2022-08-07T12:08:43.012Z,100924.37
2022-08-07T12:12:10.248Z,100924.23
2022-08-07T12:15:00.241Z,100924.62
2022-08-07T12:17:58.498Z,100918.93
2022-08-07T12:20:59.170Z,100916.31
2022-08-07T12:24:06.905Z,100911.89
2022-08-07T12:27:15.902Z,100905.46
2022-08-07T12:29:55.048Z,100908.61
2022-08-07T12:32:44.182Z,100905.94
2022-08-07T12:35:16.462Z,100903.91
2022-08-07T12:38:10.776Z,100898.94
2022-08-07T12:40:48.935Z,100894.88
2022-08-07T12:44:04.395Z,100887.81
2022-08-07T12:46:50.906Z,100885.93
2022-08-07T12:49:48.855Z,100887.23
2022-08-07T12:52:47.287Z,100879.80
2022-08-07T12:55:40.628Z,100876.74
2022-08-07T12:58:13.012Z,100872.46
2022-08-07T13:01:12.124Z,100872.92
2022-08-07T13:04:09.778Z,100874.85
2022-08-07T13:07:07.171Z,100868.35
2022-08-07T13:10:19.770Z,100869.13
2022-08-07T13:13:12.325Z,100865.33
2022-08-07T13:16:16.934Z,100862.14
2022-08-07T13:19:21.738Z,100858.08
2022-08-07T13:22:19.957Z,100849.54
2022-08-07T13:25:00.231Z,100844.05
2022-08-07T13:28:11.504Z,100842.66
2022-08-07T13:30:41.412Z,100841.48
2022-08-07T13:34:31.449Z,100840.56
2022-08-07T13:36:25.935Z,100837.02
2022-08-07T13:39:04.996Z,100834.14
2022-08-07T13:41:47.266Z,100829.92
2022-08-07T13:44:19.293Z,100827.64
2022-08-07T13:46:57.279Z,100819.93
2022-08-07T13:50:33.011Z,100817.23
2022-08-07T13:52:33.590Z,100816.40
2022-08-07T13:55:26.764Z,100814.45
2022-08-07T13:58:27.889Z,100809.44
2022-08-07T14:01:08.907Z,100802.29
2022-08-07T14:03:41.402Z,100797.23
2022-08-07T14:06:33.743Z,100796.81
2022-08-07T14:09:03.601Z,100797.45
2022-08-07T14:11:53.505Z,100799.33
2022-08-07T14:14:33.796Z,100796.71
2022-08-07T14:17:32.410Z,100793.38
2022-08-07T14:20:43.428Z,100786.97
2022-08-07T14:23:09.933Z,100780.13
2022-08-07T14:25:39.123Z,100782.73
2022-08-07T14:28:13.447Z,100781.27
2022-08-07T14:30:46.832Z,100775.80
2022-08-07T14:33:22.300Z,100769.67
2022-08-07T14:35:56.037Z,100781.75
2022-08-07T14:38:31.245Z,100778.76
2022-08-07T14:41:14.634Z,100772.02
2022-08-07T14:43:56.018Z,100772.41
2022-08-07T14:46:31.034Z,100769.19
2022-08-07T14:49:55.657Z,100769.39
2022-08-07T14:52:03.267Z,100767.64
2022-08-07T14:54:42.015Z,100766.56
2022-08-07T14:57:28.924Z,100764.60
2022-08-07T15:11:53.618Z,100758.54
2022-08-07T15:14:30.596Z,100758.46
2022-08-07T15:17:00.543Z,100754.27
2022-08-07T15:20:31.159Z,100750.95
2022-08-07T15:22:29.583Z,100752.20
2022-08-07T15:25:17.915Z,100751.74
2022-08-07T15:30:59.331Z,100746.52
2022-08-07T15:33:33.513Z,100745.55
2022-08-07T15:38:59.565Z,100742.23
2022-08-07T15:42:43.486Z,100741.54
2022-08-07T15:44:23.769Z,100744.62
2022-08-07T15:47:09.103Z,100737.57
2022-08-07T15:52:36.894Z,100733.22
2022-08-07T15:55:08.907Z,100733.33
2022-08-07T15:57:49.118Z,100736.05
2022-08-07T16:00:31.115Z,100730.27
2022-08-07T16:03:04.150Z,100729.90
2022-08-07T16:05:31.936Z,100729.89
2022-08-07T16:08:33.270Z,100728.06
2022-08-07T16:11:00.736Z,100728.36
2022-08-07T16:14:00.225Z,100728.38
2022-08-07T16:16:49.821Z,100725.77
2022-08-07T16:19:43.014Z,100720.30
2022-08-07T16:22:33.746Z,100716.64
2022-08-07T16:25:55.130Z,100721.15
2022-08-07T16:30:09.136Z,100714.61
2022-08-07T16:31:51.688Z,100715.58
2022-08-07T16:34:45.382Z,100720.08
2022-08-07T16:38:04.242Z,100718.05
2022-08-07T16:40:36.005Z,100717.90
2022-08-07T16:44:05.604Z,100717.42
2022-08-07T16:50:20.466Z,100714.36
2022-08-07T16:52:49.270Z,100713.16
2022-08-07T16:55:27.335Z,100713.96
2022-08-07T16:58:30.174Z,100715.16
2022-08-07T17:01:34.250Z,100712.64
2022-08-07T17:04:25.357Z,100712.74
2022-08-07T17:07:04.111Z,100713.31
2022-08-07T17:10:08.284Z,100712.02
2022-08-07T17:13:00.924Z,100711.11
2022-08-07T17:16:00.875Z,100718.62
2022-08-07T17:18:37.236Z,100718.09
2022-08-07T17:21:18.930Z,100722.80
2022-08-07T17:24:02.224Z,100718.18
2022-08-07T17:26:52.734Z,100718.30
2022-08-07T17:30:15.025Z,100718.86
2022-08-07T17:32:35.310Z,100723.02
2022-08-07T17:35:51.021Z,100720.67
2022-08-07T17:38:34.033Z,100722.20
2022-08-07T17:42:02.147Z,100723.16
2022-08-07T17:44:33.556Z,100721.90
2022-08-07T17:47:38.703Z,100719.74
2022-08-07T17:50:19.914Z,100723.62
2022-08-07T17:53:59.854Z,100723.16
2022-08-07T17:56:29.776Z,100729.65
2022-08-07T17:58:57.874Z,100730.61
2022-08-07T18:01:36.643Z,100730.85
2022-08-07T18:04:39.077Z,100734.34
2022-08-07T18:07:20.586Z,100733.02
2022-08-07T18:10:05.985Z,100735.33
2022-08-07T18:12:52.986Z,100732.39
2022-08-07T18:15:38.325Z,100735.52
2022-08-07T18:18:44.995Z,100737.73
2022-08-07T18:21:38.168Z,100734.04
2022-08-07T18:24:07.083Z,100737.21
2022-08-07T18:26:42.370Z,100746.12
2022-08-07T18:30:05.336Z,100747.14
2022-08-07T18:33:10.782Z,100748.02
2022-08-07T18:36:05.896Z,100750.42
2022-08-07T18:38:56.459Z,100746.30
2022-08-07T18:42:04.126Z,100754.64
2022-08-07T18:45:39.932Z,100757.18
2022-08-07T18:48:01.388Z,100758.21
2022-08-07T18:50:46.383Z,100762.80
2022-08-07T18:53:18.423Z,100763.90
2022-08-07T18:56:18.247Z,100767.79
2022-08-07T18:59:47.008Z,100768.17
2022-08-07T19:02:34.610Z,100770.14
2022-08-07T19:05:26.651Z,100769.79
2022-08-07T19:08:20.578Z,100773.84
2022-08-07T19:11:35.041Z,100774.35
2022-08-07T19:14:19.767Z,100779.80
2022-08-07T19:17:04.571Z,100782.35
2022-08-07T19:20:02.024Z,100788.40
2022-08-07T19:22:54.287Z,100785.61
2022-08-07T19:26:22.737Z,100789.38
2022-08-07T19:28:58.354Z,100792.05
2022-08-07T19:31:42.805Z,100793.08
2022-08-07T19:34:08.240Z,100793.33
2022-08-07T19:36:41.323Z,100797.05
2022-08-07T19:39:11.687Z,100799.73
2022-08-07T19:42:07.948Z,100796.19
2022-08-07T19:44:43.533Z,100796.71
2022-08-07T19:47:27.394Z,100790.52
2022-08-07T19:50:03.074Z,100789.95
2022-08-07T19:52:58.588Z,100792.83
2022-08-07T19:55:58.001Z,100794.04
2022-08-07T19:58:28.300Z,100796.28
2022-08-07T20:00:58.373Z,100794.36
2022-08-07T20:03:34.850Z,100791.81
2022-08-07T20:06:05.186Z,100788.96
2022-08-07T20:08:38.255Z,100794.17
2022-08-07T20:11:10.851Z,100795.39
2022-08-07T20:13:54.807Z,100800.14
2022-08-07T20:16:35.038Z,100804.66
2022-08-07T20:19:10.385Z,100805.58
2022-08-07T20:21:48.301Z,100806.40
2022-08-07T20:24:28.517Z,100808.36
2022-08-07T20:26:59.436Z,100808.28
2022-08-07T20:29:49.018Z,100806.02
2022-08-07T20:32:39.828Z,100806.73
2022-08-07T20:35:15.845Z,100805.45
2022-08-07T20:37:57.832Z,100807.10
2022-08-07T20:40:34.609Z,100807.39
2022-08-07T20:43:09.568Z,100804.55
2022-08-07T20:46:27.398Z,100804.00
2022-08-07T20:48:33.964Z,100804.52
2022-08-07T20:51:09.337Z,100804.80
2022-08-07T20:54:03.609Z,100801.57
2022-08-07T20:56:32.211Z,100801.89
2022-08-07T20:59:06.479Z,100805.89
2022-08-07T21:01:58.425Z,100804.95
2022-08-07T21:04:29.642Z,100804.21
2022-08-07T21:07:04.400Z,100799.30
2022-08-07T21:09:51.993Z,100804.31
2022-08-07T21:12:31.038Z,100805.75
2022-08-07T21:15:00.988Z,100801.57
2022-08-07T21:18:02.920Z,100805.52
2022-08-07T21:20:29.406Z,100806.31
2022-08-07T21:23:08.256Z,100805.95
2022-08-07T21:25:42.606Z,100805.59
2022-08-07T21:28:48.941Z,100807.63
2022-08-07T21:31:15.387Z,100811.65
2022-08-07T21:34:26.775Z,100814.13
2022-08-07T21:37:12.288Z,100813.88
2022-08-07T21:39:54.832Z,100814.85
2022-08-07T21:42:42.223Z,100815.27
2022-08-07T21:46:09.068Z,100818.73
2022-08-07T21:48:28.894Z,100814.09
2022-08-07T21:51:51.224Z,100813.09
2022-08-07T21:54:36.463Z,100813.30
2022-08-07T21:57:39.452Z,100820.33
2022-08-07T22:00:22.162Z,100819.70
2022-08-07T22:03:06.185Z,100823.54
2022-08-07T22:05:45.270Z,100825.04
2022-08-07T22:08:18.753Z,100823.42
2022-08-07T22:10:50.476Z,100824.64
2022-08-07T22:13:24.560Z,100829.02
2022-08-07T22:16:46.879Z,100832.26
2022-08-07T22:19:29.599Z,100833.48
2022-08-07T22:22:20.811Z,100834.09
2022-08-07T22:25:12.121Z,100833.12
2022-08-07T22:28:08.102Z,100833.06
2022-08-07T22:31:11.119Z,100831.22
2022-08-07T22:33:52.550Z,100826.35
2022-08-07T22:36:46.479Z,100823.16
2022-08-07T22:39:52.924Z,100822.27
2022-08-07T22:42:29.489Z,100821.40
2022-08-07T22:45:02.408Z,100820.22
2022-08-07T22:47:52.188Z,100823.15
2022-08-07T22:50:40.428Z,100820.98
2022-08-07T22:54:05.333Z,100821.48
2022-08-07T22:56:13.511Z,100816.73
2022-08-07T22:58:54.173Z,100820.43
2022-08-07T23:01:51.129Z,100820.81
2022-08-07T23:04:18.303Z,100814.93
2022-08-07T23:07:39.831Z,100814.02
2022-08-07T23:10:36.304Z,100811.09
2022-08-07T23:13:18.863Z,100813.09
2022-08-07T23:16:10.915Z,100808.73
2022-08-07T23:19:48.062Z,100807.73
2022-08-07T23:22:09.796Z,100813.44
2022-08-07T23:25:01.783Z,100809.65
2022-08-07T23:28:22.237Z,100808.25
2022-08-07T23:31:05.682Z,100807.40
2022-08-07T23:34:33.461Z,100807.09
2022-08-07T23:37:29.482Z,100806.93
2022-08-07T23:40:13.204Z,100807.31
2022-08-07T23:42:55.843Z,100808.89
2022-08-07T23:46:03.142Z,100810.36
2022-08-07T23:48:58.858Z,100807.56
2022-08-07T23:53:17.042Z,100811.53
2022-08-07T23:54:35.916Z,100806.98
2022-08-07T23:57:20.494Z,100806.45
